Aviation Digital Data Service (ADDS)

Output produced by METARs form (1721 UTC 09 December 2016)
found at http://aviationweather.gov/adds/metars/
 
KLGA 091532Z 0916/1012 30021G30KT P6SM BKN050 
     FM100300 30013G24KT P6SM SCT120 
     FM100600 30011G20KT P6SM SCT100 BKN200